Burlington, CO

5:35 AM MDT on October 01, 2014 (GMT -0600)
Cheyenne County Municipal | Change Station
CLOSE
Current Station
Airport
Location: St. Francis,
Elevation: 3412 ft
Nearby Weather Stations

Elev 3412 ft 39.76 °N, 101.80 °W | Updated 20 minutes ago

Clear
Clear
52 °F
Feels Like 52 °F
N
5
Wind Variable Wind from NNW

Today
High -- | Low -- °F
--% Chance of Precip.
Yesterday
High -- | Low -- °F
Precip. -- in
6:45 AM 6:31 PM
Waxing Crescent, 46% visible
Pressure 29.81 in
Visibility 10.0 miles
Clouds Clear
Dew Point 41 °F
Humidity 66%
Rainfall 0.00 in
Snow Depth 1 in , 0 in , 0 in
UV 0 out of 12
Pollen 4.00 out of 12
Air Quality Not available.
Flu Activity Not available.
METAR KSYF 011115Z AUTO 34004KT 10SM CLR 11/05 A2981 RMK AO2 T01140052

More Conditions Fewer Conditions

Pressure 29.81 in
Visibility 10.0 miles
Clouds Clear
Dew Point 41 °F
Humidity 66%
Rainfall 0.00 in
Snow Depth 1 in , 0 in , 0 in
UV 0 out of 12
Pollen 4.00 out of 12
Air Quality Not available.
Flu Activity Not available.
METAR KSYF 011115Z AUTO 34004KT 10SM CLR 11/05 A2981 RMK AO2 T01140052

More Conditions Fewer Conditions

10-Day Weather Forecast

Almanac

Astronomy

Oct. 01, 2014 Rise Set
Actual Time 6:45 AM MDT 6:31 PM MDT
Civil Twilight 6:18 AM MDT 6:58 PM MDT
Nautical Twilight 5:47 AM MDT 7:29 PM MDT
Astronomical Twilight 5:15 AM MDT 8:00 PM MDT
Moon 1:46 PM MDT No Moon Set
Length of Visible Light 12h 39m
Length of Day
11h 46m
Tomorrow will be 2m 32s shorter.
Waxing Crescent, 46% of the Moon is Illuminated
Today
Waxing Crescent
Oct 1
First Quarter
Oct 8
Full
Oct 15
Last Quarter
Oct 23
New

Today's Extremes

State Highs State Lows

Community

WunderPhotos

Upload Photos

1,757,913 photos uploaded!

Nearby

Snow Depth

Station Depth Elevation
Wolf Creek Summit 1 in 11000 ft
Zirkel 0 in 9340 ft
Whiskey Creek 0 in 10220 ft
Bear Lake 0 in 9500 ft
Ivanhoe 1 in 10400 ft

Earthquake Activity

City Distance Mag. Time & Date
No recent earthquake activity has been reported nearby.
Minimum magnitude displayed is 2.5.

Coastal Water Temperatures

Place Temperature
No Stations Reporting

Nearby Weather Stations